createdAt,value
2023-02-07T00:00:10.440Z,20.05
2023-02-07T00:02:41.772Z,19.30
2023-02-07T00:05:10.176Z,19.20
2023-02-07T00:07:37.088Z,19.83
2023-02-07T00:10:04.058Z,20.25
2023-02-07T00:12:30.717Z,19.08
2023-02-07T00:14:57.411Z,20.65
2023-02-07T00:17:24.010Z,19.88
2023-02-07T00:19:50.705Z,20.17
2023-02-07T00:22:18.665Z,19.70
2023-02-07T00:24:45.552Z,20.20
2023-02-07T00:27:12.208Z,20.48
2023-02-07T00:29:38.935Z,20.70
2023-02-07T00:32:06.327Z,20.23
2023-02-07T00:34:33.022Z,21.23
2023-02-07T00:36:59.627Z,21.60
2023-02-07T00:39:28.555Z,21.42
2023-02-07T00:41:55.730Z,20.75
2023-02-07T00:44:22.529Z,21.02
2023-02-07T00:46:49.183Z,21.88
2023-02-07T00:49:15.773Z,21.35
2023-02-07T00:51:42.358Z,21.10
2023-02-07T00:54:09.061Z,20.67
2023-02-07T00:56:37.074Z,20.15
2023-02-07T00:59:03.684Z,21.60
2023-02-07T01:01:30.821Z,20.58
2023-02-07T01:03:57.509Z,19.80
2023-02-07T01:06:24.586Z,20.35
2023-02-07T01:08:55.385Z,20.70
2023-02-07T01:11:22.062Z,19.48
2023-02-07T01:13:50.116Z,21.40
2023-02-07T01:16:18.671Z,20.73
2023-02-07T01:18:45.336Z,20.42
2023-02-07T01:21:16.152Z,20.52
2023-02-07T01:23:42.880Z,21.92
2023-02-07T01:26:09.821Z,20.05
2023-02-07T01:28:36.462Z,20.85
2023-02-07T01:31:08.835Z,20.83
2023-02-07T01:33:36.299Z,20.77
2023-02-07T01:36:06.382Z,21.30
2023-02-07T01:38:33.782Z,20.80
2023-02-07T01:41:00.352Z,19.85
2023-02-07T01:43:28.774Z,20.20
2023-02-07T01:45:55.595Z,21.83
2023-02-07T01:48:27.718Z,21.88
2023-02-07T01:50:56.933Z,20.90
2023-02-07T01:53:25.618Z,21.77
2023-02-07T01:55:56.589Z,21.40
2023-02-07T01:58:24.134Z,21.40
2023-02-07T02:00:52.174Z,20.42
2023-02-07T02:03:19.201Z,20.17
2023-02-07T02:05:49.357Z,20.40
2023-02-07T02:08:16.026Z,21.40
2023-02-07T02:11:01.835Z,21.17
2023-02-07T02:13:36.640Z,19.95
2023-02-07T02:16:13.820Z,21.38
2023-02-07T02:19:00.962Z,21.58
2023-02-07T02:22:18.860Z,22.48
2023-02-07T02:25:35.158Z,20.63
2023-02-07T02:28:23.302Z,19.08
2023-02-07T02:31:17.485Z,19.85
2023-02-07T02:33:53.759Z,20.38
2023-02-07T02:36:28.321Z,20.05
2023-02-07T02:39:02.878Z,19.80
2023-02-07T02:41:37.328Z,20.42
2023-02-07T02:44:12.567Z,21.02
2023-02-07T02:46:41.642Z,19.35
2023-02-07T02:49:13.441Z,18.95
2023-02-07T02:51:40.262Z,19.63
2023-02-07T02:54:26.662Z,19.90
2023-02-07T02:57:07.168Z,18.45
2023-02-07T03:00:02.683Z,18.30
2023-02-07T03:02:38.752Z,19.38
2023-02-07T03:05:25.372Z,18.63
2023-02-07T03:08:03.386Z,18.70
2023-02-07T03:10:39.005Z,18.63
2023-02-07T03:13:13.891Z,18.75
2023-02-07T03:15:51.868Z,18.10
2023-02-07T03:18:25.426Z,17.20
2023-02-07T03:21:00.475Z,17.83
2023-02-07T03:23:30.599Z,16.90
2023-02-07T03:26:00.377Z,16.75
2023-02-07T03:28:30.566Z,18.67
2023-02-07T03:31:00.555Z,17.10
2023-02-07T03:33:27.416Z,18.35
2023-02-07T03:36:00.567Z,16.92
2023-02-07T03:38:27.614Z,17.17
2023-02-07T03:40:59.485Z,17.08
2023-02-07T03:43:29.898Z,15.77
2023-02-07T03:45:57.324Z,17.63
2023-02-07T03:48:24.156Z,16.00
2023-02-07T03:50:50.912Z,15.85
2023-02-07T03:53:18.980Z,16.27
2023-02-07T03:55:45.753Z,16.67
2023-02-07T03:58:12.483Z,15.40
2023-02-07T04:00:39.344Z,16.17
2023-02-07T04:03:08.327Z,15.82
2023-02-07T04:05:35.327Z,15.80
2023-02-07T04:08:02.387Z,16.13
2023-02-07T04:10:30.464Z,15.82
2023-02-07T04:12:57.111Z,16.20
2023-02-07T04:15:23.972Z,16.88
2023-02-07T04:17:50.588Z,17.60
2023-02-07T04:20:17.685Z,16.58
2023-02-07T04:22:44.256Z,16.90
2023-02-07T04:25:10.972Z,17.20
2023-02-07T04:27:38.950Z,17.65
2023-02-07T04:30:06.284Z,18.23
2023-02-07T04:32:32.887Z,17.63
2023-02-07T04:34:59.610Z,16.67
2023-02-07T04:37:26.261Z,18.60
2023-02-07T04:39:52.871Z,17.27
2023-02-07T04:42:19.740Z,18.15
2023-02-07T04:44:47.657Z,17.85
2023-02-07T04:47:14.427Z,18.92
2023-02-07T04:49:41.068Z,17.48
2023-02-07T04:52:07.679Z,17.60
2023-02-07T04:54:34.301Z,17.95
2023-02-07T04:57:00.946Z,17.55
2023-02-07T04:59:27.517Z,17.35
2023-02-07T05:01:55.490Z,17.50
2023-02-07T05:04:22.140Z,17.38
2023-02-07T05:06:48.754Z,17.88
2023-02-07T05:09:15.431Z,18.13
2023-02-07T05:11:42.042Z,18.77
2023-02-07T05:14:08.819Z,18.15
2023-02-07T05:16:35.570Z,18.23
2023-02-07T05:19:03.539Z,17.98
2023-02-07T05:21:30.298Z,19.40
2023-02-07T05:23:56.895Z,17.80
2023-02-07T05:26:23.544Z,17.85
2023-02-07T05:28:51.492Z,18.40
2023-02-07T05:31:18.319Z,17.83
2023-02-07T05:33:45.032Z,17.55
2023-02-07T05:36:13.079Z,17.52
2023-02-07T05:38:39.653Z,17.15
2023-02-07T05:41:07.725Z,18.38
2023-02-07T05:43:34.367Z,18.83
2023-02-07T05:46:01.089Z,17.85
2023-02-07T05:48:27.903Z,16.65
2023-02-07T05:50:54.605Z,16.25
2023-02-07T05:53:22.603Z,16.27
2023-02-07T05:55:51.222Z,16.83
2023-02-07T05:58:17.823Z,15.02
2023-02-07T06:00:44.708Z,18.42
2023-02-07T06:03:11.447Z,15.80
2023-02-07T06:05:38.439Z,15.23
2023-02-07T06:08:05.635Z,16.52
2023-02-07T06:10:33.779Z,15.38
2023-02-07T06:13:00.425Z,15.52
2023-02-07T06:15:27.289Z,15.65
2023-02-07T06:17:53.935Z,15.15
2023-02-07T06:20:20.650Z,16.48
2023-02-07T06:22:47.275Z,14.80
2023-02-07T06:25:14.392Z,14.88
2023-02-07T06:27:42.413Z,15.27
2023-02-07T06:30:11.862Z,14.02
2023-02-07T06:32:38.601Z,15.40
2023-02-07T06:35:06.657Z,14.98
2023-02-07T06:37:33.742Z,14.75
2023-02-07T06:40:00.524Z,15.75
2023-02-07T06:42:27.232Z,15.20
2023-02-07T06:44:55.262Z,15.52
2023-02-07T06:47:22.303Z,15.57
2023-02-07T06:49:49.110Z,14.90
2023-02-07T06:52:16.011Z,15.02
2023-02-07T06:54:42.736Z,15.10
2023-02-07T06:57:09.390Z,15.50
2023-02-07T06:59:36.205Z,15.82
2023-02-07T07:02:04.772Z,15.05
2023-02-07T07:04:31.431Z,14.98
2023-02-07T07:06:58.321Z,14.57
2023-02-07T07:09:24.967Z,15.60
2023-02-07T07:11:51.613Z,15.88
2023-02-07T07:14:18.277Z,16.52
2023-02-07T07:16:44.925Z,15.60
2023-02-07T07:19:13.057Z,17.77
2023-02-07T07:21:39.701Z,16.05
2023-02-07T07:24:06.913Z,17.55
2023-02-07T07:26:47.888Z,16.63
2023-02-07T07:29:16.230Z,17.27
2023-02-07T07:31:42.845Z,17.85
2023-02-07T07:34:09.607Z,18.35
2023-02-07T07:36:37.576Z,17.77
2023-02-07T07:39:04.517Z,17.85
2023-02-07T07:41:31.229Z,17.55
2023-02-07T07:43:57.918Z,16.90
2023-02-07T07:46:24.616Z,17.75
2023-02-07T07:48:51.214Z,16.13
2023-02-07T07:51:18.132Z,16.50
2023-02-07T07:53:46.298Z,16.35
2023-02-07T07:56:12.942Z,17.27
2023-02-07T07:58:39.723Z,17.27
2023-02-07T08:01:06.447Z,16.15
2023-02-07T08:03:33.203Z,16.60
2023-02-07T08:05:59.914Z,17.33
2023-02-07T08:08:26.586Z,16.63
2023-02-07T08:10:54.581Z,16.58
2023-02-07T08:13:21.199Z,16.98
2023-02-07T08:15:47.853Z,17.25
2023-02-07T08:18:14.409Z,17.08
2023-02-07T08:20:41.394Z,17.80
2023-02-07T08:23:08.174Z,18.42
2023-02-07T08:25:34.787Z,19.02
2023-02-07T08:28:04.584Z,18.02
2023-02-07T08:30:32.150Z,18.63
2023-02-07T08:32:58.742Z,17.65
2023-02-07T08:35:25.419Z,18.77
2023-02-07T08:37:52.359Z,18.45
2023-02-07T08:40:19.596Z,18.17
2023-02-07T08:42:46.199Z,19.25
2023-02-07T08:45:14.287Z,18.98
2023-02-07T08:47:41.122Z,16.98
2023-02-07T08:50:08.970Z,18.35
2023-02-07T08:52:35.578Z,18.55
2023-02-07T08:55:02.504Z,16.90
2023-02-07T08:57:29.167Z,17.63
2023-02-07T08:59:55.775Z,17.63
2023-02-07T09:02:23.909Z,16.70
2023-02-07T09:04:50.694Z,17.77
2023-02-07T09:07:18.303Z,18.20
2023-02-07T09:09:44.973Z,18.42
2023-02-07T09:12:12.634Z,18.27
2023-02-07T09:14:40.088Z,18.15
2023-02-07T09:17:07.232Z,18.45
2023-02-07T09:19:35.735Z,18.08
2023-02-07T09:22:02.400Z,19.30
2023-02-07T09:24:29.054Z,19.23
2023-02-07T09:26:55.761Z,17.77
2023-02-07T09:29:22.532Z,18.58
2023-02-07T09:31:49.223Z,17.75
2023-02-07T09:34:16.826Z,18.92
2023-02-07T09:36:44.726Z,16.92
2023-02-07T09:39:11.911Z,17.52
2023-02-07T09:41:47.594Z,17.67
2023-02-07T09:44:17.805Z,16.33
2023-02-07T09:46:50.636Z,16.88
2023-02-07T09:51:54.238Z,13.63
2023-02-07T09:54:24.692Z,13.95
2023-02-07T09:56:52.336Z,13.18
2023-02-07T09:59:31.100Z,12.40
2023-02-07T10:02:02.124Z,11.85
2023-02-07T10:04:35.194Z,11.98
2023-02-07T10:07:06.845Z,10.63
2023-02-07T10:09:39.137Z,10.82
2023-02-07T10:12:15.383Z,10.45
2023-02-07T10:15:10.252Z,10.07
2023-02-07T10:17:49.235Z,10.20
2023-02-07T10:20:32.367Z,10.07
2023-02-07T10:23:12.118Z,10.18
2023-02-07T10:25:48.616Z,10.65
2023-02-07T10:28:53.958Z,10.27
2023-02-07T10:31:24.152Z,9.48
2023-02-07T10:33:56.735Z,9.05
2023-02-07T10:36:24.659Z,8.95
2023-02-07T10:39:08.333Z,8.63
2023-02-07T10:41:37.387Z,8.40
2023-02-07T10:44:05.267Z,8.00
2023-02-07T10:46:33.583Z,8.65
2023-02-07T10:49:00.308Z,7.88
2023-02-07T10:51:31.478Z,8.88
2023-02-07T10:54:05.799Z,8.85
2023-02-07T10:56:35.213Z,8.18
2023-02-07T10:59:01.940Z,9.80
2023-02-07T11:01:31.739Z,9.50
2023-02-07T11:03:58.760Z,9.68
2023-02-07T11:06:27.181Z,9.50
2023-02-07T11:09:18.798Z,9.80
2023-02-07T11:11:47.728Z,8.80
2023-02-07T11:14:17.429Z,9.05
2023-02-07T11:16:44.986Z,8.05
2023-02-07T11:19:17.359Z,7.43
2023-02-07T11:21:46.362Z,7.32
2023-02-07T11:24:16.599Z,8.15
2023-02-07T11:26:54.515Z,8.98
2023-02-07T11:29:24.258Z,8.48
2023-02-07T11:31:53.346Z,8.60
2023-02-07T11:34:37.356Z,8.27
2023-02-07T11:37:24.415Z,7.20
2023-02-07T11:39:54.183Z,7.88
2023-02-07T11:42:23.050Z,7.57
2023-02-07T11:44:50.630Z,8.23
2023-02-07T11:47:21.937Z,7.93
2023-02-07T11:49:51.355Z,7.05
2023-02-07T11:52:18.506Z,7.20
2023-02-07T11:54:51.414Z,7.55
2023-02-07T11:57:21.055Z,7.40
2023-02-07T12:00:03.016Z,7.93
2023-02-07T12:02:40.444Z,7.35
2023-02-07T12:05:18.579Z,7.00
2023-02-07T12:07:49.276Z,7.50
2023-02-07T12:10:21.530Z,7.05
2023-02-07T12:12:54.014Z,7.38
2023-02-07T12:15:25.471Z,7.45
2023-02-07T12:17:58.496Z,6.97
2023-02-07T12:20:26.930Z,7.40
2023-02-07T12:23:07.950Z,6.65
2023-02-07T12:25:50.562Z,6.78
2023-02-07T12:28:34.178Z,6.07
2023-02-07T12:31:09.776Z,6.40
2023-02-07T12:33:42.469Z,6.53
2023-02-07T12:36:14.186Z,6.68
2023-02-07T12:38:47.130Z,6.37
2023-02-07T12:41:19.102Z,5.68
2023-02-07T12:43:54.120Z,6.10
2023-02-07T12:46:31.523Z,5.93
2023-02-07T12:49:11.534Z,6.22
2023-02-07T12:51:48.153Z,5.53
2023-02-07T12:54:30.812Z,6.90
2023-02-07T12:57:03.290Z,7.07
2023-02-07T12:59:43.893Z,6.82
2023-02-07T13:02:23.807Z,7.70
2023-02-07T13:05:07.421Z,7.13
2023-02-07T13:07:56.252Z,13.18
2023-02-07T13:10:33.227Z,9.35
2023-02-07T13:13:11.878Z,7.78
2023-02-07T13:15:47.043Z,6.78
2023-02-07T13:18:18.825Z,6.85
2023-02-07T13:20:54.040Z,6.20
2023-02-07T13:23:22.452Z,6.88
2023-02-07T13:25:54.035Z,6.78
2023-02-07T13:28:25.787Z,6.32
2023-02-07T13:30:54.808Z,6.97
2023-02-07T13:33:34.557Z,5.72
2023-02-07T13:36:07.714Z,6.30
2023-02-07T13:38:46.039Z,6.88
2023-02-07T13:41:20.687Z,7.82
2023-02-07T13:44:09.387Z,7.18
2023-02-07T13:47:12.660Z,7.00
2023-02-07T13:49:51.128Z,6.35
2023-02-07T13:52:26.584Z,6.70
2023-02-07T13:55:02.336Z,6.50
2023-02-07T13:57:40.918Z,7.55
2023-02-07T14:00:16.141Z,8.98
2023-02-07T14:02:47.513Z,7.45
2023-02-07T14:05:22.919Z,7.13
2023-02-07T14:07:58.019Z,6.20
2023-02-07T14:10:46.480Z,7.05
2023-02-07T14:13:21.730Z,6.47
2023-02-07T14:16:01.010Z,6.25
2023-02-07T14:18:41.045Z,6.22
2023-02-07T14:21:28.976Z,6.30
2023-02-07T14:24:04.202Z,5.78
2023-02-07T14:26:51.880Z,5.22
2023-02-07T14:30:03.346Z,4.97
2023-02-07T14:32:37.783Z,5.03
2023-02-07T14:35:26.124Z,5.18
2023-02-07T14:37:59.769Z,4.97
2023-02-07T14:40:29.393Z,4.50
2023-02-07T14:42:59.884Z,4.28
2023-02-07T14:45:29.636Z,4.68
2023-02-07T14:47:57.183Z,4.72
2023-02-07T14:50:26.366Z,4.68
2023-02-07T14:52:55.800Z,4.10
2023-02-07T14:55:30.798Z,4.65
2023-02-07T14:58:01.105Z,4.57
2023-02-07T15:00:32.778Z,4.57
2023-02-07T15:03:02.263Z,4.47
2023-02-07T15:05:32.077Z,4.50
2023-02-07T15:08:09.821Z,4.80
2023-02-07T15:10:38.902Z,4.47
2023-02-07T15:13:17.173Z,4.90
2023-02-07T15:15:49.632Z,4.60
2023-02-07T15:20:49.127Z,4.32
2023-02-07T15:23:17.906Z,4.22
2023-02-07T15:25:45.562Z,4.38
2023-02-07T15:28:27.419Z,5.22
2023-02-07T15:30:58.630Z,5.65
2023-02-07T15:33:27.300Z,5.07
2023-02-07T15:35:53.856Z,5.82
2023-02-07T15:38:24.494Z,5.82
2023-02-07T15:40:51.927Z,5.68
2023-02-07T15:43:27.631Z,5.85
2023-02-07T15:46:04.557Z,5.97
2023-02-07T15:48:32.358Z,5.55
2023-02-07T15:51:03.550Z,5.20
2023-02-07T15:53:31.933Z,6.38
2023-02-07T15:55:58.766Z,5.97
2023-02-07T15:58:28.110Z,5.93
2023-02-07T16:00:59.822Z,6.05
2023-02-07T16:03:29.242Z,6.00
2023-02-07T16:06:02.334Z,6.20
2023-02-07T16:08:32.294Z,5.68
2023-02-07T16:11:12.991Z,5.70
2023-02-07T16:13:44.703Z,6.22
2023-02-07T16:16:19.775Z,5.88
2023-02-07T16:18:47.294Z,5.95
2023-02-07T16:21:18.618Z,6.13
2023-02-07T16:23:48.650Z,6.50
2023-02-07T16:26:17.319Z,6.72
2023-02-07T16:28:44.887Z,6.78
2023-02-07T16:31:11.741Z,7.20
2023-02-07T16:33:39.955Z,6.97
2023-02-07T16:36:13.019Z,7.60
2023-02-07T16:38:39.784Z,8.60
2023-02-07T16:41:21.092Z,8.15
2023-02-07T16:43:47.912Z,7.78
2023-02-07T16:46:14.596Z,7.63
2023-02-07T16:48:41.339Z,7.47
2023-02-07T16:51:08.027Z,7.72
2023-02-07T16:53:34.697Z,7.55
2023-02-07T16:56:02.500Z,7.55
2023-02-07T16:58:32.124Z,7.07
2023-02-07T17:00:58.914Z,7.32
2023-02-07T17:03:25.991Z,6.75
2023-02-07T17:05:52.699Z,7.75
2023-02-07T17:08:22.518Z,8.15
2023-02-07T17:10:52.310Z,9.40
2023-02-07T17:13:19.027Z,8.98
2023-02-07T17:15:47.809Z,9.48
2023-02-07T17:18:14.641Z,9.50
2023-02-07T17:20:41.709Z,9.25
2023-02-07T17:23:08.573Z,10.32
2023-02-07T17:25:36.603Z,9.45
2023-02-07T17:28:03.720Z,9.30
2023-02-07T17:30:37.024Z,9.43
2023-02-07T17:33:05.494Z,9.02
2023-02-07T17:35:32.118Z,9.93
2023-02-07T17:37:58.845Z,9.70
2023-02-07T17:40:29.204Z,10.35
2023-02-07T17:42:56.572Z,10.48
2023-02-07T17:45:24.169Z,9.60
2023-02-07T17:47:50.863Z,10.15
2023-02-07T17:50:21.149Z,9.70
2023-02-07T17:52:48.129Z,10.82
2023-02-07T17:55:15.731Z,10.77
2023-02-07T17:57:43.331Z,10.32
2023-02-07T18:00:17.066Z,11.93
2023-02-07T18:02:45.337Z,11.32
2023-02-07T18:05:14.168Z,11.57
2023-02-07T18:07:42.411Z,12.27
2023-02-07T18:10:10.488Z,11.40
2023-02-07T18:12:37.664Z,10.88
2023-02-07T18:15:05.786Z,10.93
2023-02-07T18:17:32.507Z,11.93
2023-02-07T18:19:59.181Z,11.00
2023-02-07T18:22:25.919Z,11.80
2023-02-07T18:24:53.931Z,10.65
2023-02-07T18:27:20.720Z,11.60
2023-02-07T18:29:47.360Z,11.32
2023-02-07T18:32:14.151Z,11.23
2023-02-07T18:34:40.880Z,11.63
2023-02-07T18:37:07.545Z,10.80
2023-02-07T18:39:34.255Z,11.75
2023-02-07T18:42:02.332Z,10.68
2023-02-07T18:44:28.966Z,11.48
2023-02-07T18:46:55.666Z,13.00
2023-02-07T18:49:22.401Z,14.73
2023-02-07T18:51:49.401Z,14.18
2023-02-07T18:54:16.102Z,15.00
2023-02-07T18:56:42.846Z,16.98
2023-02-07T18:59:10.926Z,18.20
2023-02-07T19:01:37.563Z,18.95
2023-02-07T19:04:04.561Z,20.70
2023-02-07T19:06:33.743Z,24.45
2023-02-07T19:09:00.379Z,23.27
2023-02-07T19:11:26.953Z,24.17
2023-02-07T19:13:53.537Z,24.77
2023-02-07T19:16:23.654Z,22.30
2023-02-07T19:18:50.567Z,22.27
2023-02-07T19:21:19.189Z,22.92
2023-02-07T19:23:45.832Z,22.88
2023-02-07T19:26:12.877Z,24.08
2023-02-07T19:28:39.619Z,26.83
2023-02-07T19:31:07.721Z,26.00
2023-02-07T19:33:36.040Z,29.45
2023-02-07T19:36:05.091Z,25.52
2023-02-07T19:38:31.978Z,23.38
2023-02-07T19:40:59.102Z,22.10
2023-02-07T19:43:25.864Z,21.23
2023-02-07T19:45:52.752Z,22.73
2023-02-07T19:48:19.957Z,23.55
2023-02-07T19:50:48.495Z,27.55
2023-02-07T19:53:15.159Z,30.45
2023-02-07T19:55:41.831Z,36.67
2023-02-07T19:58:08.667Z,40.25
2023-02-07T20:00:35.286Z,38.10
2023-02-07T20:03:02.029Z,31.38
2023-02-07T20:05:29.141Z,26.25
2023-02-07T20:07:58.131Z,23.42
2023-02-07T20:10:24.683Z,19.85
2023-02-07T20:12:51.262Z,18.75
2023-02-07T20:15:17.996Z,18.60
2023-02-07T20:17:44.672Z,16.17
2023-02-07T20:20:11.466Z,17.30
2023-02-07T20:22:38.121Z,17.30
2023-02-07T20:25:07.226Z,17.58
2023-02-07T20:27:33.870Z,19.23
2023-02-07T20:30:00.424Z,19.73
2023-02-07T20:32:27.104Z,20.80
2023-02-07T20:34:53.681Z,19.05
2023-02-07T20:37:20.442Z,18.77
2023-02-07T20:39:47.617Z,19.63
2023-02-07T20:42:15.773Z,18.17
2023-02-07T20:44:42.429Z,20.60
2023-02-07T20:47:10.838Z,21.55
2023-02-07T20:49:38.208Z,19.55
2023-02-07T20:52:05.248Z,18.70
2023-02-07T20:54:31.845Z,17.90
2023-02-07T20:56:58.831Z,17.73
2023-02-07T20:59:29.383Z,18.45
2023-02-07T21:01:56.428Z,17.65
2023-02-07T21:04:23.109Z,18.60
2023-02-07T21:06:49.883Z,17.85
2023-02-07T21:09:16.510Z,19.02
2023-02-07T21:11:44.839Z,18.50
2023-02-07T21:14:14.381Z,16.27
2023-02-07T21:16:42.441Z,16.65
2023-02-07T21:19:09.391Z,16.35
2023-02-07T21:21:36.473Z,15.32
2023-02-07T21:24:03.936Z,15.07
2023-02-07T21:26:30.709Z,15.35
2023-02-07T21:28:58.346Z,14.40
2023-02-07T21:31:26.073Z,13.02
2023-02-07T21:33:54.221Z,14.75
2023-02-07T21:36:23.920Z,15.45
2023-02-07T21:38:52.045Z,15.60
2023-02-07T21:41:20.506Z,15.00
2023-02-07T21:43:47.218Z,15.93
2023-02-07T21:46:15.722Z,15.57
2023-02-07T21:48:42.438Z,14.95
2023-02-07T21:51:12.212Z,13.75
2023-02-07T21:53:39.428Z,13.90
2023-02-07T21:56:08.190Z,13.13
2023-02-07T21:58:35.056Z,13.85
2023-02-07T22:01:06.853Z,13.30
2023-02-07T22:03:33.899Z,13.03
2023-02-07T22:06:00.515Z,12.77
2023-02-07T22:08:28.656Z,13.23
2023-02-07T22:10:55.751Z,14.20
2023-02-07T22:13:23.756Z,13.85
2023-02-07T22:15:53.170Z,13.98
2023-02-07T22:18:19.863Z,15.45
2023-02-07T22:20:46.643Z,15.00
2023-02-07T22:23:13.287Z,15.50
2023-02-07T22:25:41.933Z,15.02
2023-02-07T22:28:09.323Z,14.48
2023-02-07T22:30:36.244Z,16.45
2023-02-07T22:33:02.895Z,17.27
2023-02-07T22:35:29.619Z,17.60
2023-02-07T22:37:56.393Z,16.75
2023-02-07T22:40:22.996Z,18.15
2023-02-07T22:42:51.091Z,17.98
2023-02-07T22:45:17.892Z,16.85
2023-02-07T22:47:44.575Z,16.25
2023-02-07T22:50:11.291Z,14.65
2023-02-07T22:52:37.879Z,13.15
2023-02-07T22:55:05.450Z,12.95
2023-02-07T22:57:32.076Z,13.02
2023-02-07T23:00:00.190Z,13.40
2023-02-07T23:02:27.360Z,13.13
2023-02-07T23:04:54.167Z,12.93
2023-02-07T23:07:21.015Z,12.32
2023-02-07T23:09:47.738Z,12.20
2023-02-07T23:12:14.416Z,12.90
2023-02-07T23:14:41.202Z,12.07
2023-02-07T23:17:09.265Z,12.85
2023-02-07T23:19:36.006Z,11.45
2023-02-07T23:22:02.672Z,11.98
2023-02-07T23:24:29.292Z,11.13
2023-02-07T23:26:55.973Z,10.80
2023-02-07T23:29:22.745Z,10.77
2023-02-07T23:31:49.522Z,11.35
2023-02-07T23:34:18.192Z,9.80
2023-02-07T23:36:45.117Z,10.30
2023-02-07T23:39:11.779Z,10.93
2023-02-07T23:41:38.644Z,10.63
2023-02-07T23:44:05.738Z,10.73
2023-02-07T23:46:32.588Z,10.25
2023-02-07T23:48:59.316Z,9.90
2023-02-07T23:51:28.051Z,10.73
2023-02-07T23:53:54.705Z,9.07
2023-02-07T23:56:23.218Z,9.75
2023-02-07T23:58:51.833Z,10.18
